sensor_id;sensor_type;location;lat;lon;timestamp;P1;durP1;ratioP1;P2;durP2;ratioP2
33792;SDS011;20105;48.764;9.178;2022-10-20T00:01:01;9.03;;;8.10;;
33792;SDS011;20105;48.764;9.178;2022-10-20T00:03:27;8.53;;;7.13;;
33792;SDS011;20105;48.764;9.178;2022-10-20T00:05:54;8.38;;;7.35;;
33792;SDS011;20105;48.764;9.178;2022-10-20T00:08:29;10.63;;;8.38;;
33792;SDS011;20105;48.764;9.178;2022-10-20T00:10:55;9.70;;;8.23;;
33792;SDS011;20105;48.764;9.178;2022-10-20T00:13:21;10.70;;;9.15;;
33792;SDS011;20105;48.764;9.178;2022-10-20T00:15:50;11.63;;;8.60;;
33792;SDS011;20105;48.764;9.178;2022-10-20T00:18:17;10.48;;;8.40;;
33792;SDS011;20105;48.764;9.178;2022-10-20T00:20:43;9.97;;;8.57;;
33792;SDS011;20105;48.764;9.178;2022-10-20T00:23:09;14.30;;;8.90;;
33792;SDS011;20105;48.764;9.178;2022-10-20T00:25:34;17.10;;;9.20;;
33792;SDS011;20105;48.764;9.178;2022-10-20T00:28:00;14.00;;;9.20;;
33792;SDS011;20105;48.764;9.178;2022-10-20T00:30:25;11.30;;;8.03;;
33792;SDS011;20105;48.764;9.178;2022-10-20T00:32:51;13.20;;;8.17;;
33792;SDS011;20105;48.764;9.178;2022-10-20T00:35:16;11.30;;;7.53;;
33792;SDS011;20105;48.764;9.178;2022-10-20T00:37:42;12.97;;;9.50;;
33792;SDS011;20105;48.764;9.178;2022-10-20T00:40:08;11.60;;;8.33;;
33792;SDS011;20105;48.764;9.178;2022-10-20T00:42:33;11.90;;;7.43;;
33792;SDS011;20105;48.764;9.178;2022-10-20T00:44:59;13.20;;;9.10;;
33792;SDS011;20105;48.764;9.178;2022-10-20T00:50:08;12.65;;;8.68;;
33792;SDS011;20105;48.764;9.178;2022-10-20T00:52:37;17.27;;;8.85;;
33792;SDS011;20105;48.764;9.178;2022-10-20T00:55:05;15.25;;;10.15;;
33792;SDS011;20105;48.764;9.178;2022-10-20T00:57:32;11.65;;;8.15;;
33792;SDS011;20105;48.764;9.178;2022-10-20T00:59:59;12.32;;;8.70;;
33792;SDS011;20105;48.764;9.178;2022-10-20T01:02:25;14.23;;;9.17;;
33792;SDS011;20105;48.764;9.178;2022-10-20T01:04:51;9.83;;;8.00;;
33792;SDS011;20105;48.764;9.178;2022-10-20T01:07:16;16.43;;;9.80;;
33792;SDS011;20105;48.764;9.178;2022-10-20T01:09:42;16.27;;;8.83;;
33792;SDS011;20105;48.764;9.178;2022-10-20T01:17:22;12.18;;;9.10;;
33792;SDS011;20105;48.764;9.178;2022-10-20T01:23:06;16.00;;;8.95;;
33792;SDS011;20105;48.764;9.178;2022-10-20T01:31:19;13.98;;;9.23;;
33792;SDS011;20105;48.764;9.178;2022-10-20T01:36:38;16.80;;;11.02;;
33792;SDS011;20105;48.764;9.178;2022-10-20T01:42:19;12.45;;;9.43;;
33792;SDS011;20105;48.764;9.178;2022-10-20T01:44:47;12.57;;;9.60;;
33792;SDS011;20105;48.764;9.178;2022-10-20T01:47:14;13.43;;;10.70;;
33792;SDS011;20105;48.764;9.178;2022-10-20T01:49:44;15.13;;;10.10;;
33792;SDS011;20105;48.764;9.178;2022-10-20T01:52:12;14.35;;;10.18;;
33792;SDS011;20105;48.764;9.178;2022-10-20T01:54:37;14.70;;;11.37;;
33792;SDS011;20105;48.764;9.178;2022-10-20T02:02:31;15.93;;;9.73;;
33792;SDS011;20105;48.764;9.178;2022-10-20T02:07:42;14.52;;;9.95;;
33792;SDS011;20105;48.764;9.178;2022-10-20T02:12:49;17.38;;;11.93;;
33792;SDS011;20105;48.764;9.178;2022-10-20T02:15:20;15.18;;;9.45;;
33792;SDS011;20105;48.764;9.178;2022-10-20T02:17:50;12.98;;;9.02;;
33792;SDS011;20105;48.764;9.178;2022-10-20T02:20:18;15.90;;;11.95;;
33792;SDS011;20105;48.764;9.178;2022-10-20T02:22:44;18.20;;;13.03;;
33792;SDS011;20105;48.764;9.178;2022-10-20T02:25:12;19.17;;;11.50;;
33792;SDS011;20105;48.764;9.178;2022-10-20T02:27:38;12.43;;;9.25;;
33792;SDS011;20105;48.764;9.178;2022-10-20T02:30:08;16.20;;;10.88;;
33792;SDS011;20105;48.764;9.178;2022-10-20T02:32:37;14.73;;;10.05;;
33792;SDS011;20105;48.764;9.178;2022-10-20T02:35:09;17.17;;;12.32;;
33792;SDS011;20105;48.764;9.178;2022-10-20T02:37:38;16.27;;;10.88;;
33792;SDS011;20105;48.764;9.178;2022-10-20T02:40:03;16.00;;;10.20;;
33792;SDS011;20105;48.764;9.178;2022-10-20T02:42:29;18.83;;;9.83;;
33792;SDS011;20105;48.764;9.178;2022-10-20T02:44:55;18.13;;;11.23;;
33792;SDS011;20105;48.764;9.178;2022-10-20T02:47:20;15.97;;;11.17;;
33792;SDS011;20105;48.764;9.178;2022-10-20T02:49:46;19.90;;;11.40;;
33792;SDS011;20105;48.764;9.178;2022-10-20T02:52:12;13.68;;;10.90;;
33792;SDS011;20105;48.764;9.178;2022-10-20T02:54:38;19.30;;;11.07;;
33792;SDS011;20105;48.764;9.178;2022-10-20T02:57:04;17.27;;;11.60;;
33792;SDS011;20105;48.764;9.178;2022-10-20T02:59:29;18.30;;;10.93;;
33792;SDS011;20105;48.764;9.178;2022-10-20T03:01:55;18.17;;;10.90;;
33792;SDS011;20105;48.764;9.178;2022-10-20T03:04:20;18.70;;;11.87;;
33792;SDS011;20105;48.764;9.178;2022-10-20T03:06:46;20.90;;;12.83;;
33792;SDS011;20105;48.764;9.178;2022-10-20T03:09:11;19.90;;;10.33;;
33792;SDS011;20105;48.764;9.178;2022-10-20T03:11:37;17.53;;;11.23;;
33792;SDS011;20105;48.764;9.178;2022-10-20T03:14:02;17.27;;;10.03;;
33792;SDS011;20105;48.764;9.178;2022-10-20T03:16:28;15.67;;;11.30;;
33792;SDS011;20105;48.764;9.178;2022-10-20T03:18:54;17.97;;;10.50;;
33792;SDS011;20105;48.764;9.178;2022-10-20T03:21:19;13.77;;;10.13;;
33792;SDS011;20105;48.764;9.178;2022-10-20T03:23:45;14.00;;;10.33;;
33792;SDS011;20105;48.764;9.178;2022-10-20T03:26:12;18.23;;;10.45;;
33792;SDS011;20105;48.764;9.178;2022-10-20T03:28:38;17.37;;;12.30;;
33792;SDS011;20105;48.764;9.178;2022-10-20T03:31:04;19.48;;;12.68;;
33792;SDS011;20105;48.764;9.178;2022-10-20T03:33:30;16.23;;;10.70;;
33792;SDS011;20105;48.764;9.178;2022-10-20T03:35:56;19.20;;;12.97;;
33792;SDS011;20105;48.764;9.178;2022-10-20T03:38:22;20.13;;;12.53;;
33792;SDS011;20105;48.764;9.178;2022-10-20T03:40:47;14.80;;;10.80;;
33792;SDS011;20105;48.764;9.178;2022-10-20T03:43:13;17.57;;;12.50;;
33792;SDS011;20105;48.764;9.178;2022-10-20T03:45:40;17.00;;;12.97;;
33792;SDS011;20105;48.764;9.178;2022-10-20T03:48:06;23.23;;;13.30;;
33792;SDS011;20105;48.764;9.178;2022-10-20T03:50:32;18.50;;;13.10;;
33792;SDS011;20105;48.764;9.178;2022-10-20T03:52:58;17.00;;;11.07;;
33792;SDS011;20105;48.764;9.178;2022-10-20T03:55:23;20.40;;;11.97;;
33792;SDS011;20105;48.764;9.178;2022-10-20T03:57:52;17.47;;;11.57;;
33792;SDS011;20105;48.764;9.178;2022-10-20T04:00:17;18.02;;;11.57;;
33792;SDS011;20105;48.764;9.178;2022-10-20T04:02:45;17.17;;;11.70;;
33792;SDS011;20105;48.764;9.178;2022-10-20T04:05:14;25.48;;;12.20;;
33792;SDS011;20105;48.764;9.178;2022-10-20T04:07:42;15.85;;;11.20;;
33792;SDS011;20105;48.764;9.178;2022-10-20T04:10:08;20.87;;;13.63;;
33792;SDS011;20105;48.764;9.178;2022-10-20T04:12:35;16.98;;;11.93;;
33792;SDS011;20105;48.764;9.178;2022-10-20T04:15:02;17.47;;;12.07;;
33792;SDS011;20105;48.764;9.178;2022-10-20T04:17:28;14.02;;;11.25;;
33792;SDS011;20105;48.764;9.178;2022-10-20T04:19:54;14.97;;;11.30;;
33792;SDS011;20105;48.764;9.178;2022-10-20T04:22:19;13.07;;;10.50;;
33792;SDS011;20105;48.764;9.178;2022-10-20T04:24:45;17.30;;;11.50;;
33792;SDS011;20105;48.764;9.178;2022-10-20T04:27:10;17.40;;;12.83;;
33792;SDS011;20105;48.764;9.178;2022-10-20T04:29:36;17.53;;;11.80;;
33792;SDS011;20105;48.764;9.178;2022-10-20T04:32:02;17.23;;;12.20;;
33792;SDS011;20105;48.764;9.178;2022-10-20T04:34:27;14.30;;;10.57;;
33792;SDS011;20105;48.764;9.178;2022-10-20T04:36:53;13.23;;;10.07;;
33792;SDS011;20105;48.764;9.178;2022-10-20T04:39:18;14.27;;;11.30;;
33792;SDS011;20105;48.764;9.178;2022-10-20T04:41:44;20.23;;;10.03;;
33792;SDS011;20105;48.764;9.178;2022-10-20T04:44:10;15.27;;;10.87;;
33792;SDS011;20105;48.764;9.178;2022-10-20T04:46:35;15.37;;;12.03;;
33792;SDS011;20105;48.764;9.178;2022-10-20T04:49:01;14.00;;;10.30;;
33792;SDS011;20105;48.764;9.178;2022-10-20T04:51:27;12.88;;;10.00;;
33792;SDS011;20105;48.764;9.178;2022-10-20T04:53:53;15.60;;;11.10;;
33792;SDS011;20105;48.764;9.178;2022-10-20T04:56:19;19.53;;;11.57;;
33792;SDS011;20105;48.764;9.178;2022-10-20T04:58:46;18.35;;;11.85;;
33792;SDS011;20105;48.764;9.178;2022-10-20T05:01:12;14.80;;;10.70;;
33792;SDS011;20105;48.764;9.178;2022-10-20T05:03:38;18.50;;;10.77;;
33792;SDS011;20105;48.764;9.178;2022-10-20T05:06:23;15.23;;;11.27;;
33792;SDS011;20105;48.764;9.178;2022-10-20T05:08:55;17.42;;;10.45;;
33792;SDS011;20105;48.764;9.178;2022-10-20T05:11:23;20.38;;;11.48;;
33792;SDS011;20105;48.764;9.178;2022-10-20T05:13:50;13.43;;;10.65;;
33792;SDS011;20105;48.764;9.178;2022-10-20T05:16:16;14.17;;;10.27;;
33792;SDS011;20105;48.764;9.178;2022-10-20T05:18:42;14.50;;;9.85;;
33792;SDS011;20105;48.764;9.178;2022-10-20T05:21:09;18.10;;;10.25;;
33792;SDS011;20105;48.764;9.178;2022-10-20T05:23:38;14.27;;;11.20;;
33792;SDS011;20105;48.764;9.178;2022-10-20T05:26:04;13.15;;;10.70;;
33792;SDS011;20105;48.764;9.178;2022-10-20T05:28:32;17.05;;;10.75;;
33792;SDS011;20105;48.764;9.178;2022-10-20T05:31:02;21.33;;;10.98;;
33792;SDS011;20105;48.764;9.178;2022-10-20T05:33:30;16.83;;;10.73;;
33792;SDS011;20105;48.764;9.178;2022-10-20T05:35:55;14.87;;;10.93;;
33792;SDS011;20105;48.764;9.178;2022-10-20T05:38:21;19.50;;;12.13;;
33792;SDS011;20105;48.764;9.178;2022-10-20T05:40:47;18.20;;;12.20;;
33792;SDS011;20105;48.764;9.178;2022-10-20T05:43:12;15.37;;;11.13;;
33792;SDS011;20105;48.764;9.178;2022-10-20T05:45:38;16.40;;;11.20;;
33792;SDS011;20105;48.764;9.178;2022-10-20T05:48:04;17.93;;;12.20;;
33792;SDS011;20105;48.764;9.178;2022-10-20T05:50:30;20.67;;;12.30;;
33792;SDS011;20105;48.764;9.178;2022-10-20T05:52:55;16.00;;;11.33;;
33792;SDS011;20105;48.764;9.178;2022-10-20T05:55:21;18.23;;;12.27;;
33792;SDS011;20105;48.764;9.178;2022-10-20T05:57:50;20.83;;;12.43;;
33792;SDS011;20105;48.764;9.178;2022-10-20T06:00:16;19.25;;;13.10;;
33792;SDS011;20105;48.764;9.178;2022-10-20T06:02:47;19.05;;;11.80;;
33792;SDS011;20105;48.764;9.178;2022-10-20T06:05:13;21.27;;;12.53;;
33792;SDS011;20105;48.764;9.178;2022-10-20T06:07:38;18.40;;;11.33;;
33792;SDS011;20105;48.764;9.178;2022-10-20T06:10:04;15.17;;;11.63;;
33792;SDS011;20105;48.764;9.178;2022-10-20T06:12:30;15.40;;;11.23;;
33792;SDS011;20105;48.764;9.178;2022-10-20T06:14:55;19.40;;;12.30;;
33792;SDS011;20105;48.764;9.178;2022-10-20T06:17:21;17.07;;;12.40;;
33792;SDS011;20105;48.764;9.178;2022-10-20T06:19:46;16.73;;;11.53;;
33792;SDS011;20105;48.764;9.178;2022-10-20T06:22:12;15.33;;;11.83;;
33792;SDS011;20105;48.764;9.178;2022-10-20T06:24:37;17.57;;;13.20;;
33792;SDS011;20105;48.764;9.178;2022-10-20T06:27:03;18.83;;;12.03;;
33792;SDS011;20105;48.764;9.178;2022-10-20T06:29:28;15.70;;;11.70;;
33792;SDS011;20105;48.764;9.178;2022-10-20T06:31:54;20.10;;;12.03;;
33792;SDS011;20105;48.764;9.178;2022-10-20T06:34:21;16.95;;;10.70;;
33792;SDS011;20105;48.764;9.178;2022-10-20T06:36:49;17.60;;;11.98;;
33792;SDS011;20105;48.764;9.178;2022-10-20T06:39:16;21.38;;;11.68;;
33792;SDS011;20105;48.764;9.178;2022-10-20T06:41:47;15.05;;;11.70;;
33792;SDS011;20105;48.764;9.178;2022-10-20T06:44:15;17.55;;;11.80;;
33792;SDS011;20105;48.764;9.178;2022-10-20T06:46:44;21.05;;;12.25;;
33792;SDS011;20105;48.764;9.178;2022-10-20T06:49:09;18.40;;;13.77;;
33792;SDS011;20105;48.764;9.178;2022-10-20T06:51:36;20.85;;;13.20;;
33792;SDS011;20105;48.764;9.178;2022-10-20T06:54:02;21.58;;;11.15;;
33792;SDS011;20105;48.764;9.178;2022-10-20T06:56:28;20.70;;;13.40;;
33792;SDS011;20105;48.764;9.178;2022-10-20T06:58:57;18.30;;;12.82;;
33792;SDS011;20105;48.764;9.178;2022-10-20T07:03:51;20.58;;;13.02;;
33792;SDS011;20105;48.764;9.178;2022-10-20T07:06:18;20.60;;;12.25;;
33792;SDS011;20105;48.764;9.178;2022-10-20T07:08:50;18.52;;;12.48;;
33792;SDS011;20105;48.764;9.178;2022-10-20T07:11:18;16.92;;;12.30;;
33792;SDS011;20105;48.764;9.178;2022-10-20T07:13:45;13.82;;;11.05;;
33792;SDS011;20105;48.764;9.178;2022-10-20T07:16:13;17.80;;;13.40;;
33792;SDS011;20105;48.764;9.178;2022-10-20T07:18:41;16.70;;;11.00;;
33792;SDS011;20105;48.764;9.178;2022-10-20T07:21:07;17.10;;;11.70;;
33792;SDS011;20105;48.764;9.178;2022-10-20T07:23:36;17.33;;;10.88;;
33792;SDS011;20105;48.764;9.178;2022-10-20T07:28:43;18.52;;;11.98;;
33792;SDS011;20105;48.764;9.178;2022-10-20T07:31:11;14.73;;;12.30;;
33792;SDS011;20105;48.764;9.178;2022-10-20T07:33:39;14.10;;;10.45;;
33792;SDS011;20105;48.764;9.178;2022-10-20T07:38:37;15.98;;;10.75;;
33792;SDS011;20105;48.764;9.178;2022-10-20T07:41:03;15.53;;;10.13;;
33792;SDS011;20105;48.764;9.178;2022-10-20T07:43:29;16.37;;;10.73;;
33792;SDS011;20105;48.764;9.178;2022-10-20T07:45:54;13.47;;;10.80;;
33792;SDS011;20105;48.764;9.178;2022-10-20T07:48:20;13.60;;;9.93;;
33792;SDS011;20105;48.764;9.178;2022-10-20T07:50:45;17.33;;;11.00;;
33792;SDS011;20105;48.764;9.178;2022-10-20T07:53:11;12.50;;;9.80;;
33792;SDS011;20105;48.764;9.178;2022-10-20T07:55:37;21.50;;;10.63;;
33792;SDS011;20105;48.764;9.178;2022-10-20T07:58:02;13.47;;;9.60;;
33792;SDS011;20105;48.764;9.178;2022-10-20T08:00:28;11.77;;;10.10;;
33792;SDS011;20105;48.764;9.178;2022-10-20T08:02:53;13.80;;;10.30;;
33792;SDS011;20105;48.764;9.178;2022-10-20T08:05:19;12.50;;;9.10;;
33792;SDS011;20105;48.764;9.178;2022-10-20T08:07:44;15.27;;;10.50;;
33792;SDS011;20105;48.764;9.178;2022-10-20T08:10:10;11.53;;;9.03;;
33792;SDS011;20105;48.764;9.178;2022-10-20T08:12:36;14.90;;;9.50;;
33792;SDS011;20105;48.764;9.178;2022-10-20T08:15:02;14.50;;;9.50;;
33792;SDS011;20105;48.764;9.178;2022-10-20T08:17:28;13.43;;;8.77;;
33792;SDS011;20105;48.764;9.178;2022-10-20T08:19:54;11.30;;;8.43;;
33792;SDS011;20105;48.764;9.178;2022-10-20T08:22:19;11.57;;;8.17;;
33792;SDS011;20105;48.764;9.178;2022-10-20T08:24:45;9.57;;;7.30;;
33792;SDS011;20105;48.764;9.178;2022-10-20T08:27:11;10.00;;;8.00;;
33792;SDS011;20105;48.764;9.178;2022-10-20T08:29:37;12.00;;;10.03;;
33792;SDS011;20105;48.764;9.178;2022-10-20T08:32:03;10.17;;;8.80;;
33792;SDS011;20105;48.764;9.178;2022-10-20T08:34:29;8.80;;;7.93;;
33792;SDS011;20105;48.764;9.178;2022-10-20T08:36:54;9.03;;;7.40;;
33792;SDS011;20105;48.764;9.178;2022-10-20T08:39:20;8.20;;;7.40;;
33792;SDS011;20105;48.764;9.178;2022-10-20T08:41:46;8.10;;;7.30;;
33792;SDS011;20105;48.764;9.178;2022-10-20T08:44:18;9.93;;;6.80;;
33792;SDS011;20105;48.764;9.178;2022-10-20T08:47:01;5.90;;;5.20;;
33792;SDS011;20105;48.764;9.178;2022-10-20T08:49:29;5.80;;;5.30;;
33792;SDS011;20105;48.764;9.178;2022-10-20T08:51:57;7.80;;;6.47;;
33792;SDS011;20105;48.764;9.178;2022-10-20T08:54:23;10.43;;;7.43;;
33792;SDS011;20105;48.764;9.178;2022-10-20T08:56:49;8.10;;;7.07;;
33792;SDS011;20105;48.764;9.178;2022-10-20T09:02:01;6.33;;;5.70;;
33792;SDS011;20105;48.764;9.178;2022-10-20T09:04:35;6.30;;;5.70;;
33792;SDS011;20105;48.764;9.178;2022-10-20T09:07:12;10.37;;;5.83;;
33792;SDS011;20105;48.764;9.178;2022-10-20T09:09:46;8.20;;;5.77;;
33792;SDS011;20105;48.764;9.178;2022-10-20T09:12:12;7.03;;;6.03;;
33792;SDS011;20105;48.764;9.178;2022-10-20T09:14:39;8.00;;;5.27;;
33792;SDS011;20105;48.764;9.178;2022-10-20T09:17:05;8.43;;;5.93;;
33792;SDS011;20105;48.764;9.178;2022-10-20T09:19:41;7.00;;;5.30;;
33792;SDS011;20105;48.764;9.178;2022-10-20T09:22:13;5.57;;;5.10;;
33792;SDS011;20105;48.764;9.178;2022-10-20T09:24:40;8.03;;;5.10;;
33792;SDS011;20105;48.764;9.178;2022-10-20T09:27:18;5.40;;;4.90;;
33792;SDS011;20105;48.764;9.178;2022-10-20T09:29:48;6.70;;;5.20;;
33792;SDS011;20105;48.764;9.178;2022-10-20T09:32:35;5.70;;;4.43;;
33792;SDS011;20105;48.764;9.178;2022-10-20T09:37:53;5.50;;;4.23;;
33792;SDS011;20105;48.764;9.178;2022-10-20T09:40:19;5.83;;;5.07;;
33792;SDS011;20105;48.764;9.178;2022-10-20T09:42:50;4.07;;;3.67;;
33792;SDS011;20105;48.764;9.178;2022-10-20T09:45:20;5.30;;;4.90;;
33792;SDS011;20105;48.764;9.178;2022-10-20T09:47:51;7.33;;;5.53;;
33792;SDS011;20105;48.764;9.178;2022-10-20T09:50:24;7.70;;;6.00;;
33792;SDS011;20105;48.764;9.178;2022-10-20T09:52:53;8.93;;;4.90;;
33792;SDS011;20105;48.764;9.178;2022-10-20T09:55:29;6.83;;;5.40;;
33792;SDS011;20105;48.764;9.178;2022-10-20T09:57:58;5.87;;;5.33;;
33792;SDS011;20105;48.764;9.178;2022-10-20T10:00:27;6.53;;;5.37;;
33792;SDS011;20105;48.764;9.178;2022-10-20T10:03:09;6.60;;;5.13;;
33792;SDS011;20105;48.764;9.178;2022-10-20T10:05:44;7.30;;;5.83;;
33792;SDS011;20105;48.764;9.178;2022-10-20T10:08:16;7.20;;;5.83;;
33792;SDS011;20105;48.764;9.178;2022-10-20T10:10:43;7.63;;;5.77;;
33792;SDS011;20105;48.764;9.178;2022-10-20T10:13:22;6.90;;;5.67;;
33792;SDS011;20105;48.764;9.178;2022-10-20T10:16:00;5.93;;;5.30;;
33792;SDS011;20105;48.764;9.178;2022-10-20T10:18:29;7.93;;;5.30;;
33792;SDS011;20105;48.764;9.178;2022-10-20T10:20:59;8.10;;;4.67;;
33792;SDS011;20105;48.764;9.178;2022-10-20T10:23:28;6.40;;;5.43;;
33792;SDS011;20105;48.764;9.178;2022-10-20T10:25:55;6.30;;;5.07;;
33792;SDS011;20105;48.764;9.178;2022-10-20T10:28:26;6.37;;;5.40;;
33792;SDS011;20105;48.764;9.178;2022-10-20T10:31:06;11.97;;;5.50;;
33792;SDS011;20105;48.764;9.178;2022-10-20T10:33:36;6.23;;;5.50;;
33792;SDS011;20105;48.764;9.178;2022-10-20T10:36:04;8.73;;;4.67;;
33792;SDS011;20105;48.764;9.178;2022-10-20T10:38:35;7.50;;;4.97;;
33792;SDS011;20105;48.764;9.178;2022-10-20T10:46:26;5.23;;;4.77;;
33792;SDS011;20105;48.764;9.178;2022-10-20T10:51:47;6.10;;;5.50;;
33792;SDS011;20105;48.764;9.178;2022-10-20T11:00:10;8.43;;;5.60;;
33792;SDS011;20105;48.764;9.178;2022-10-20T11:02:48;5.10;;;4.57;;
33792;SDS011;20105;48.764;9.178;2022-10-20T11:05:32;8.20;;;5.40;;
33792;SDS011;20105;48.764;9.178;2022-10-20T11:13:39;9.23;;;4.37;;
33792;SDS011;20105;48.764;9.178;2022-10-20T11:16:14;8.43;;;4.67;;
33792;SDS011;20105;48.764;9.178;2022-10-20T11:21:50;4.90;;;4.17;;
33792;SDS011;20105;48.764;9.178;2022-10-20T11:24:33;11.17;;;7.97;;
33792;SDS011;20105;48.764;9.178;2022-10-20T11:27:02;6.47;;;4.43;;
33792;SDS011;20105;48.764;9.178;2022-10-20T11:29:37;8.00;;;4.50;;
33792;SDS011;20105;48.764;9.178;2022-10-20T11:34:55;5.70;;;4.67;;
33792;SDS011;20105;48.764;9.178;2022-10-20T11:37:44;4.90;;;4.10;;
33792;SDS011;20105;48.764;9.178;2022-10-20T11:42:51;7.77;;;5.00;;
33792;SDS011;20105;48.764;9.178;2022-10-20T11:47:51;5.50;;;4.90;;
33792;SDS011;20105;48.764;9.178;2022-10-20T11:50:25;4.47;;;4.07;;
33792;SDS011;20105;48.764;9.178;2022-10-20T11:52:54;4.77;;;4.30;;
33792;SDS011;20105;48.764;9.178;2022-10-20T12:06:40;4.73;;;4.30;;
33792;SDS011;20105;48.764;9.178;2022-10-20T12:12:13;4.60;;;4.20;;
33792;SDS011;20105;48.764;9.178;2022-10-20T12:15:30;4.27;;;3.70;;
33792;SDS011;20105;48.764;9.178;2022-10-20T12:17:45;8.27;;;4.90;;
33792;SDS011;20105;48.764;9.178;2022-10-20T12:22:47;7.10;;;4.50;;
33792;SDS011;20105;48.764;9.178;2022-10-20T12:30:55;4.93;;;4.40;;
33792;SDS011;20105;48.764;9.178;2022-10-20T12:38:46;4.80;;;4.40;;
33792;SDS011;20105;48.764;9.178;2022-10-20T12:41:25;6.47;;;4.13;;
33792;SDS011;20105;48.764;9.178;2022-10-20T12:44:06;6.10;;;4.10;;
33792;SDS011;20105;48.764;9.178;2022-10-20T12:46:40;7.43;;;3.90;;
33792;SDS011;20105;48.764;9.178;2022-10-20T12:49:19;3.73;;;3.43;;
33792;SDS011;20105;48.764;9.178;2022-10-20T12:52:15;4.63;;;3.60;;
33792;SDS011;20105;48.764;9.178;2022-10-20T12:54:52;4.23;;;3.73;;
33792;SDS011;20105;48.764;9.178;2022-10-20T12:57:30;5.07;;;4.27;;
33792;SDS011;20105;48.764;9.178;2022-10-20T13:00:04;5.80;;;3.67;;
33792;SDS011;20105;48.764;9.178;2022-10-20T13:02:42;7.73;;;3.97;;
33792;SDS011;20105;48.764;9.178;2022-10-20T13:15:31;5.10;;;4.30;;
33792;SDS011;20105;48.764;9.178;2022-10-20T13:23:00;4.50;;;4.17;;
33792;SDS011;20105;48.764;9.178;2022-10-20T13:25:43;7.63;;;4.60;;
33792;SDS011;20105;48.764;9.178;2022-10-20T13:30:48;5.17;;;4.27;;
33792;SDS011;20105;48.764;9.178;2022-10-20T13:36:20;4.40;;;4.10;;
33792;SDS011;20105;48.764;9.178;2022-10-20T13:39:04;5.70;;;4.00;;
33792;SDS011;20105;48.764;9.178;2022-10-20T13:41:42;5.97;;;4.60;;
33792;SDS011;20105;48.764;9.178;2022-10-20T13:49:50;5.80;;;4.30;;
33792;SDS011;20105;48.764;9.178;2022-10-20T13:52:24;5.37;;;4.87;;
33792;SDS011;20105;48.764;9.178;2022-10-20T13:54:54;9.63;;;5.73;;
33792;SDS011;20105;48.764;9.178;2022-10-20T14:02:54;6.90;;;4.43;;
33792;SDS011;20105;48.764;9.178;2022-10-20T14:05:22;9.63;;;5.17;;
33792;SDS011;20105;48.764;9.178;2022-10-20T14:07:49;6.03;;;5.33;;
33792;SDS011;20105;48.764;9.178;2022-10-20T14:12:55;6.90;;;5.23;;
33792;SDS011;20105;48.764;9.178;2022-10-20T14:15:23;5.60;;;4.77;;
33792;SDS011;20105;48.764;9.178;2022-10-20T14:18:02;5.30;;;4.77;;
33792;SDS011;20105;48.764;9.178;2022-10-20T14:20:31;6.20;;;5.40;;
33792;SDS011;20105;48.764;9.178;2022-10-20T14:22:58;8.37;;;5.60;;
33792;SDS011;20105;48.764;9.178;2022-10-20T14:25:26;6.90;;;5.90;;
33792;SDS011;20105;48.764;9.178;2022-10-20T14:27:52;6.77;;;6.07;;
33792;SDS011;20105;48.764;9.178;2022-10-20T14:30:19;9.77;;;5.93;;
33792;SDS011;20105;48.764;9.178;2022-10-20T14:32:46;6.27;;;4.27;;
33792;SDS011;20105;48.764;9.178;2022-10-20T14:38:01;6.47;;;4.83;;
33792;SDS011;20105;48.764;9.178;2022-10-20T14:40:32;6.73;;;5.67;;
33792;SDS011;20105;48.764;9.178;2022-10-20T14:43:01;8.77;;;5.70;;
33792;SDS011;20105;48.764;9.178;2022-10-20T14:45:30;5.50;;;4.93;;
33792;SDS011;20105;48.764;9.178;2022-10-20T14:47:56;5.80;;;5.30;;
33792;SDS011;20105;48.764;9.178;2022-10-20T14:52:55;7.10;;;5.63;;
33792;SDS011;20105;48.764;9.178;2022-10-20T14:55:31;6.93;;;5.47;;
33792;SDS011;20105;48.764;9.178;2022-10-20T14:57:58;5.50;;;5.00;;
33792;SDS011;20105;48.764;9.178;2022-10-20T15:00:25;7.13;;;5.50;;
33792;SDS011;20105;48.764;9.178;2022-10-20T15:03:00;5.53;;;4.90;;
33792;SDS011;20105;48.764;9.178;2022-10-20T15:05:38;6.43;;;5.13;;
33792;SDS011;20105;48.764;9.178;2022-10-20T15:08:10;10.43;;;5.90;;
33792;SDS011;20105;48.764;9.178;2022-10-20T15:10:41;5.90;;;5.30;;
33792;SDS011;20105;48.764;9.178;2022-10-20T15:13:18;12.37;;;9.90;;
33792;SDS011;20105;48.764;9.178;2022-10-20T15:15:51;15.63;;;8.80;;
33792;SDS011;20105;48.764;9.178;2022-10-20T15:18:17;8.00;;;6.80;;
33792;SDS011;20105;48.764;9.178;2022-10-20T15:20:45;11.20;;;7.00;;
33792;SDS011;20105;48.764;9.178;2022-10-20T15:23:16;9.10;;;6.20;;
33792;SDS011;20105;48.764;9.178;2022-10-20T15:26:05;12.23;;;7.40;;
33792;SDS011;20105;48.764;9.178;2022-10-20T15:28:46;9.77;;;7.10;;
33792;SDS011;20105;48.764;9.178;2022-10-20T15:33:41;6.00;;;5.00;;
33792;SDS011;20105;48.764;9.178;2022-10-20T15:36:14;5.30;;;4.83;;
33792;SDS011;20105;48.764;9.178;2022-10-20T15:38:44;7.20;;;5.83;;
33792;SDS011;20105;48.764;9.178;2022-10-20T15:41:13;6.70;;;6.00;;
33792;SDS011;20105;48.764;9.178;2022-10-20T15:43:47;6.57;;;5.73;;
33792;SDS011;20105;48.764;9.178;2022-10-20T15:46:13;15.37;;;8.03;;
33792;SDS011;20105;48.764;9.178;2022-10-20T15:48:39;8.50;;;5.80;;
33792;SDS011;20105;48.764;9.178;2022-10-20T15:51:11;9.30;;;6.47;;
33792;SDS011;20105;48.764;9.178;2022-10-20T15:53:50;11.20;;;6.20;;
33792;SDS011;20105;48.764;9.178;2022-10-20T15:56:16;8.07;;;5.47;;
33792;SDS011;20105;48.764;9.178;2022-10-20T15:58:43;5.57;;;5.03;;
33792;SDS011;20105;48.764;9.178;2022-10-20T16:01:12;8.10;;;5.87;;
33792;SDS011;20105;48.764;9.178;2022-10-20T16:03:41;11.40;;;6.20;;
33792;SDS011;20105;48.764;9.178;2022-10-20T16:06:08;12.17;;;6.43;;
33792;SDS011;20105;48.764;9.178;2022-10-20T16:08:34;6.90;;;6.20;;
33792;SDS011;20105;48.764;9.178;2022-10-20T16:11:03;6.97;;;6.20;;
33792;SDS011;20105;48.764;9.178;2022-10-20T16:13:30;6.50;;;5.90;;
33792;SDS011;20105;48.764;9.178;2022-10-20T16:15:57;7.77;;;6.20;;
33792;SDS011;20105;48.764;9.178;2022-10-20T16:18:23;7.97;;;7.17;;
33792;SDS011;20105;48.764;9.178;2022-10-20T16:20:48;10.80;;;8.03;;
33792;SDS011;20105;48.764;9.178;2022-10-20T16:23:14;12.50;;;7.10;;
33792;SDS011;20105;48.764;9.178;2022-10-20T16:25:40;7.40;;;5.90;;
33792;SDS011;20105;48.764;9.178;2022-10-20T16:28:05;7.00;;;6.30;;
33792;SDS011;20105;48.764;9.178;2022-10-20T16:30:31;10.07;;;7.20;;
33792;SDS011;20105;48.764;9.178;2022-10-20T16:32:57;10.20;;;7.10;;
33792;SDS011;20105;48.764;9.178;2022-10-20T16:35:22;14.90;;;7.30;;
33792;SDS011;20105;48.764;9.178;2022-10-20T16:37:48;9.33;;;7.10;;
33792;SDS011;20105;48.764;9.178;2022-10-20T16:40:14;13.90;;;6.97;;
33792;SDS011;20105;48.764;9.178;2022-10-20T16:42:39;11.50;;;6.87;;
33792;SDS011;20105;48.764;9.178;2022-10-20T16:45:05;7.70;;;7.00;;
33792;SDS011;20105;48.764;9.178;2022-10-20T16:47:31;11.30;;;8.03;;
33792;SDS011;20105;48.764;9.178;2022-10-20T16:49:57;13.93;;;7.40;;
33792;SDS011;20105;48.764;9.178;2022-10-20T16:52:22;9.07;;;7.87;;
33792;SDS011;20105;48.764;9.178;2022-10-20T16:54:48;11.93;;;7.23;;
33792;SDS011;20105;48.764;9.178;2022-10-20T16:57:13;8.03;;;6.70;;
33792;SDS011;20105;48.764;9.178;2022-10-20T16:59:39;11.43;;;8.40;;
33792;SDS011;20105;48.764;9.178;2022-10-20T17:02:06;14.23;;;8.17;;
33792;SDS011;20105;48.764;9.178;2022-10-20T17:04:33;8.40;;;7.43;;
33792;SDS011;20105;48.764;9.178;2022-10-20T17:06:59;9.37;;;7.83;;
33792;SDS011;20105;48.764;9.178;2022-10-20T17:09:24;9.40;;;7.57;;
33792;SDS011;20105;48.764;9.178;2022-10-20T17:11:50;9.37;;;8.10;;